Impacts TAF Board
For situational awareness. Not to be used for flight planning purposes.
IDs:

KCVG - Cincinnati Intl, KY, US

Issued at 0859 UTC 21 Sep 2018
Updated at 1135 UTC 21 Sep 2018
Potential Impact None Slight Moderate High
Time<<22/00Z 22/01Z 22/02Z 22/03Z 22/04Z 22/05Z 22/06Z 22/07Z 22/08Z 22/09Z 22/10Z 22/11Z 22/12Z>>
Type PRVL PRVL PRVL PRVL PRVL PRVL PRVL PRVL PRVL PRVL PRVL PRVL
VIS >6 >6 >6 >6 >6 >6 >6 >6 >6 >6 >6 >6
CIG 40 250 250 250 250 250 250 250 250 250 250 250
Cover OVC OVC OVC OVC OVC OVC OVC OVC OVC OVC OVC OVC
FltCat VFR VFR VFR VFR VFR VFR VFR VFR VFR VFR VFR VFR
WX VCTS -- -- -- -- -- -- -- -- -- -- --
WDir 270 330 330 330 30 30 30 30 30 30 30 30
WSpd 10 11 11 11 12 12 12 12 12 12 12 12
WGst -- -- -- -- -- -- -- -- -- -- -- --
Raw TAF
KCVG 210859Z 2109/2212 19009KT P6SM SKC
  FM211400 21013KT P6SM FEW060
  FM211800 23014G22KT P6SM VCSH SCT060 SCT200
  TEMPO 2121/2122 3SM -TSRA BKN050CB
  FM212200 27010KT P6SM VCTS BKN040CB OVC250
  FM220100 33011KT P6SM SCT012 SCT060 OVC250
  FM220400 03012KT P6SM SCT012 OVC250


METAR Board
Radar Display
Forecast Discussion
For situational awareness. Not to be used for flight planning purposes.